Terminal Aerodrome Forecast
Issued by NWS Jackson, MS

Home | Current Version | Previous Version | Text Only | Print | Product List | Glossary On
Versions: 1 2 3 4 5 6 7 8 9 10 11 12 13 14 15
260
FTUS44 KMEG 271137
TAFTUP
TAF
KTUP 271137Z 2712/2812 23005KT P6SM FEW009 BKN015
     FM271430 28006KT P6SM BKN025
     FM271600 28007KT P6SM SKC
     FM280000 VRB03KT P6SM FEW150=

USA.gov is the U.S. government's official web portal to all federal, state and local government web resources and services.